Time;durP1;ratioP1;P1;durP2;ratioP2;P2;SDS_P1;SDS_P2;PMS_P1;PMS_P2;Temp;Humidity;BMP_temperature;BMP_pressure;BME280_temperature;BME280_humidity;BME280_pressure;Samples;Min_cycle;Max_cycle;Signal;HPM_P1;HPM_P2
2023/05/21 00:01:38;;;;;;;13.87;12.57;;;16.30;99.90;;;;;;6276324;28;20480;-63
2023/05/21 00:04:41;;;;;;;14.13;12.60;;;16.30;99.90;;;;;;6276593;28;20465;-63
2023/05/21 00:07:45;;;;;;;14.23;12.73;;;16.30;99.90;;;;;;6276364;28;20470;-63
2023/05/21 00:10:50;;;;;;;14.20;12.07;;;16.20;99.90;;;;;;6275835;28;20480;-66
2023/05/21 00:13:53;;;;;;;13.70;12.43;;;16.20;99.90;;;;;;6277157;28;20449;-65
2023/05/21 00:16:58;;;;;;;14.73;13.17;;;16.10;99.90;;;;;;6277290;28;20453;-65
2023/05/21 00:20:03;;;;;;;13.30;12.00;;;16.20;99.90;;;;;;6275912;28;20796;-65
2023/05/21 00:23:06;;;;;;;12.90;11.80;;;16.20;99.90;;;;;;6260994;28;20755;-65
2023/05/21 00:26:11;;;;;;;15.50;11.93;;;16.30;99.90;;;;;;6275943;28;20438;-63
2023/05/21 00:29:14;;;;;;;13.20;11.90;;;16.30;99.90;;;;;;6266392;28;20559;-63
2023/05/21 00:32:17;;;;;;;14.27;12.97;;;16.30;99.90;;;;;;6272002;28;20470;-63
2023/05/21 00:35:20;;;;;;;14.10;12.60;;;16.30;99.90;;;;;;6273385;28;20797;-63
2023/05/21 00:38:26;;;;;;;13.30;12.10;;;16.30;99.90;;;;;;6274564;28;20466;-63
2023/05/21 00:41:31;;;;;;;14.30;13.00;;;16.20;99.90;;;;;;6274669;28;20485;-64
2023/05/21 00:44:34;;;;;;;12.83;11.63;;;16.20;99.90;;;;;;6274286;28;20485;-64
2023/05/21 00:47:37;;;;;;;14.83;13.43;;;16.20;99.90;;;;;;6274664;28;20466;-64
2023/05/21 00:50:41;;;;;;;14.43;13.10;;;16.20;99.90;;;;;;6275290;28;20796;-64
2023/05/21 00:53:45;;;;;;;13.77;12.37;;;16.30;99.90;;;;;;6275982;28;20466;-64
2023/05/21 00:56:51;;;;;;;13.03;11.73;;;16.20;99.90;;;;;;6275394;28;20474;-64
2023/05/21 00:59:54;;;;;;;14.03;12.63;;;16.30;99.90;;;;;;6274890;28;20478;-64
2023/05/21 01:02:57;;;;;;;12.80;11.50;;;16.30;99.90;;;;;;6275536;28;20747;-64
2023/05/21 01:06:00;;;;;;;13.27;12.07;;;16.30;99.90;;;;;;6275479;28;20831;-64
2023/05/21 01:09:05;;;;;;;14.93;13.27;;;16.30;99.90;;;;;;6275403;28;20839;-64
2023/05/21 01:12:10;;;;;;;13.73;12.33;;;16.30;99.90;;;;;;6275402;28;20540;-64
2023/05/21 01:15:14;;;;;;;14.43;12.90;;;16.40;99.90;;;;;;6274603;28;20473;-64
2023/05/21 01:18:18;;;;;;;14.67;13.30;;;16.40;99.90;;;;;;6275098;28;20474;-64
2023/05/21 01:21:27;;;;;;;13.50;12.10;;;16.40;99.90;;;;;;6275159;28;20481;-64
2023/05/21 01:24:31;;;;;;;13.60;12.03;;;16.50;99.90;;;;;;6274128;28;20476;-64
2023/05/21 01:27:35;;;;;;;13.63;12.33;;;16.40;99.90;;;;;;6275222;28;20484;-64
2023/05/21 01:30:39;;;;;;;12.70;11.30;;;16.40;99.90;;;;;;6274526;28;20482;-63
2023/05/21 01:33:49;;;;;;;13.33;12.13;;;16.30;99.90;;;;;;6274911;28;20553;-63
2023/05/21 01:37:01;;;;;;;13.50;11.90;;;16.30;99.90;;;;;;6265372;28;20470;-63
2023/05/21 01:40:11;;;;;;;13.80;12.43;;;16.30;99.90;;;;;;6274499;28;20478;-63
2023/05/21 01:43:15;;;;;;;13.83;12.57;;;16.30;99.90;;;;;;6274525;28;20495;-63
2023/05/21 01:46:23;;;;;;;13.10;11.80;;;16.20;99.90;;;;;;6274998;28;20438;-63
2023/05/21 01:49:26;;;;;;;20.70;13.17;;;16.20;99.90;;;;;;6275313;28;20461;-64
2023/05/21 01:52:30;;;;;;;14.57;12.60;;;16.20;99.90;;;;;;6275114;28;20438;-64
2023/05/21 01:55:38;;;;;;;15.30;11.53;;;16.20;99.90;;;;;;6275381;28;20539;-64
2023/05/21 01:58:42;;;;;;;13.40;12.00;;;16.30;99.90;;;;;;6274980;28;20551;-64
2023/05/21 02:01:46;;;;;;;13.23;11.77;;;16.30;99.90;;;;;;6274595;28;21060;-64
2023/05/21 02:04:49;;;;;;;13.17;11.90;;;16.30;99.90;;;;;;6274559;28;20465;-64
2023/05/21 02:07:52;;;;;;;12.83;11.63;;;16.20;99.90;;;;;;6274517;28;20477;-64
2023/05/21 02:10:57;;;;;;;13.00;11.80;;;16.20;99.90;;;;;;6274230;28;20466;-64
2023/05/21 02:14:00;;;;;;;13.87;12.47;;;16.20;99.90;;;;;;6274388;28;20470;-64
2023/05/21 02:17:03;;;;;;;14.40;12.90;;;16.10;99.90;;;;;;6274378;28;20553;-63
2023/05/21 02:20:10;;;;;;;14.33;12.30;;;16.00;99.90;;;;;;6274302;28;21015;-63
2023/05/21 02:23:13;;;;;;;13.90;12.60;;;16.00;99.90;;;;;;6274276;28;20553;-63
2023/05/21 02:26:18;;;;;;;13.97;12.67;;;15.90;99.90;;;;;;6274293;28;20476;-63
2023/05/21 02:29:21;;;;;;;15.07;13.50;;;15.80;99.90;;;;;;6273799;28;20493;-64
2023/05/21 02:32:24;;;;;;;13.57;11.93;;;15.80;99.90;;;;;;6273933;28;20466;-63
2023/05/21 02:35:27;;;;;;;13.67;11.90;;;15.80;99.90;;;;;;6276595;28;20465;-63
2023/05/21 02:38:31;;;;;;;15.43;13.30;;;15.80;99.90;;;;;;6274298;28;20469;-63
2023/05/21 02:41:36;;;;;;;17.90;13.70;;;15.80;99.90;;;;;;6278450;28;20568;-63
2023/05/21 02:44:40;;;;;;;15.97;14.37;;;15.70;99.90;;;;;;6278697;28;20480;-63
2023/05/21 02:47:43;;;;;;;15.00;13.60;;;15.70;99.90;;;;;;6278653;28;20549;-64
2023/05/21 02:50:46;;;;;;;14.10;12.77;;;15.70;99.90;;;;;;6278408;28;20486;-64
2023/05/21 02:53:49;;;;;;;14.93;13.50;;;15.60;99.90;;;;;;6278737;28;20476;-64
2023/05/21 02:56:54;;;;;;;14.13;12.80;;;15.60;99.90;;;;;;6278185;28;20465;-64
2023/05/21 02:59:57;;;;;;;14.80;13.40;;;15.60;99.90;;;;;;6278148;28;20942;-64
2023/05/21 03:03:00;;;;;;;14.60;13.20;;;15.50;99.90;;;;;;6278290;28;20485;-63
2023/05/21 03:06:04;;;;;;;14.73;13.33;;;15.50;99.90;;;;;;6277903;28;20549;-63
2023/05/21 03:09:07;;;;;;;13.93;12.60;;;15.50;99.90;;;;;;6278641;28;20474;-63
2023/05/21 03:12:11;;;;;;;13.80;12.50;;;15.50;99.90;;;;;;6278232;28;20474;-63
2023/05/21 03:15:15;;;;;;;14.20;12.33;;;15.50;99.90;;;;;;6278091;28;20468;-63
2023/05/21 03:18:18;;;;;;;13.70;12.47;;;15.40;99.90;;;;;;6278316;28;20466;-63
2023/05/21 03:21:21;;;;;;;12.97;11.77;;;15.40;99.90;;;;;;6277829;28;20478;-63
2023/05/21 03:24:25;;;;;;;14.50;13.10;;;15.40;99.90;;;;;;6279133;28;20466;-63
2023/05/21 03:27:29;;;;;;;13.90;12.50;;;15.40;99.90;;;;;;6278636;28;20484;-63
2023/05/21 03:30:32;;;;;;;13.83;12.50;;;15.30;99.90;;;;;;6277623;28;20966;-63
2023/05/21 03:33:36;;;;;;;15.10;13.53;;;15.30;99.90;;;;;;6277288;28;20476;-63
2023/05/21 03:36:39;;;;;;;15.50;13.90;;;15.30;99.90;;;;;;6277310;28;20471;-63
2023/05/21 03:39:42;;;;;;;13.60;12.30;;;15.30;99.90;;;;;;6275232;28;20469;-63
2023/05/21 03:42:47;;;;;;;14.93;12.93;;;15.30;99.90;;;;;;6274671;28;20474;-63
2023/05/21 03:45:50;;;;;;;17.07;13.40;;;15.30;99.90;;;;;;6273000;28;20466;-64
2023/05/21 03:48:54;;;;;;;14.50;13.00;;;15.30;99.90;;;;;;6275909;28;20466;-64
2023/05/21 03:51:57;;;;;;;14.40;12.87;;;15.30;99.90;;;;;;6276751;28;20458;-64
2023/05/21 03:55:00;;;;;;;13.87;12.40;;;15.30;99.90;;;;;;6276999;28;20472;-64
2023/05/21 03:58:04;;;;;;;15.50;14.10;;;15.30;99.90;;;;;;6277237;28;20786;-64
2023/05/21 04:01:09;;;;;;;14.80;13.40;;;15.30;99.90;;;;;;6276161;28;20992;-64
2023/05/21 04:04:12;;;;;;;14.70;12.73;;;15.40;99.90;;;;;;6276820;28;20536;-64
2023/05/21 04:07:17;;;;;;;15.43;13.47;;;15.40;99.90;;;;;;6276818;28;20882;-64
2023/05/21 04:10:21;;;;;;;15.33;11.70;;;15.50;99.90;;;;;;6276705;28;20580;-64
2023/05/21 04:13:27;;;;;;;13.80;12.40;;;15.60;99.90;;;;;;6277074;28;20449;-64
2023/05/21 04:16:33;;;;;;;14.33;12.87;;;15.70;99.90;;;;;;6276669;28;20876;-63
2023/05/21 04:19:36;;;;;;;13.83;12.50;;;15.80;99.90;;;;;;6276922;28;20478;-64
2023/05/21 04:22:40;;;;;;;14.10;12.70;;;15.90;99.90;;;;;;6276338;28;20605;-64
2023/05/21 04:25:43;;;;;;;13.67;12.33;;;16.00;99.90;;;;;;6276504;28;20476;-64
2023/05/21 04:28:48;;;;;;;14.50;12.40;;;16.10;99.90;;;;;;6276545;28;20473;-63
2023/05/21 04:31:51;;;;;;;14.47;13.07;;;16.20;99.90;;;;;;6276507;28;20459;-63
2023/05/21 04:34:54;;;;;;;13.23;12.03;;;16.30;99.90;;;;;;6276440;28;20543;-63
2023/05/21 04:37:57;;;;;;;12.53;11.43;;;16.40;99.90;;;;;;6277045;28;20470;-63
2023/05/21 04:41:02;;;;;;;14.10;12.10;;;16.60;99.90;;;;;;6276504;28;20485;-63
2023/05/21 04:44:08;;;;;;;13.60;12.30;;;16.70;99.90;;;;;;6276209;28;20529;-63
2023/05/21 04:47:13;;;;;;;14.23;11.93;;;16.90;99.90;;;;;;6266720;28;20471;-63
2023/05/21 04:50:17;;;;;;;11.87;10.83;;;17.10;99.90;;;;;;6275889;28;20489;-64
2023/05/21 04:53:20;;;;;;;14.80;12.43;;;17.30;99.90;;;;;;6275730;28;20474;-64
2023/05/21 04:56:25;;;;;;;14.30;12.67;;;17.50;99.90;;;;;;6275922;28;20576;-64
2023/05/21 04:59:30;;;;;;;12.80;11.60;;;17.70;99.90;;;;;;6275745;28;20474;-64
2023/05/21 05:02:33;;;;;;;16.63;11.30;;;17.90;99.90;;;;;;6275464;28;20482;-65
2023/05/21 05:05:37;;;;;;;13.60;12.20;;;18.10;99.90;;;;;;6275403;28;20478;-65
2023/05/21 05:08:40;;;;;;;13.43;12.03;;;18.30;99.90;;;;;;6275200;28;20488;-65
2023/05/21 05:11:44;;;;;;;13.83;11.67;;;18.50;99.90;;;;;;6275407;28;20306;-65
2023/05/21 05:14:48;;;;;;;13.30;12.00;;;18.70;99.90;;;;;;6274972;28;20306;-65
2023/05/21 05:17:51;;;;;;;12.57;11.27;;;18.90;99.90;;;;;;6275484;28;20227;-64
2023/05/21 05:20:54;;;;;;;11.87;10.77;;;19.00;99.90;;;;;;6275373;28;20317;-64
2023/05/21 05:23:57;;;;;;;13.20;12.10;;;19.10;99.90;;;;;;6275410;28;20238;-64
2023/05/21 05:27:01;;;;;;;14.17;12.80;;;19.20;99.90;;;;;;6274708;28;20674;-64
2023/05/21 05:30:07;;;;;;;14.70;13.30;;;19.30;99.90;;;;;;6274921;28;20249;-64
2023/05/21 05:33:10;;;;;;;13.77;12.50;;;19.50;99.90;;;;;;6274886;28;20224;-65
2023/05/21 05:36:13;;;;;;;13.90;12.60;;;19.60;99.90;;;;;;6274720;28;20231;-65
2023/05/21 05:39:17;;;;;;;15.47;13.93;;;19.80;99.90;;;;;;6274808;28;20239;-65
2023/05/21 05:42:20;;;;;;;12.10;11.00;;;20.00;99.90;;;;;;6274696;28;20663;-64
2023/05/21 05:45:25;;;;;;;14.90;13.50;;;20.00;99.90;;;;;;6275159;28;20353;-64
2023/05/21 05:48:28;;;;;;;13.53;12.27;;;20.20;99.90;;;;;;6274921;28;20318;-65
2023/05/21 05:51:31;;;;;;;12.70;11.40;;;20.40;99.90;;;;;;6270281;28;20572;-64
2023/05/21 05:54:35;;;;;;;13.40;12.20;;;20.60;99.90;;;;;;6274944;28;20242;-64
2023/05/21 05:57:38;;;;;;;13.03;11.87;;;21.10;99.90;;;;;;6274539;28;20237;-65
2023/05/21 06:00:42;;;;;;;13.10;11.90;;;21.70;99.90;;;;;;6274108;28;20297;-64
2023/05/21 06:03:46;;;;;;;13.20;12.03;;;22.50;99.90;;;;;;6274554;28;20672;-64
2023/05/21 06:06:49;;;;;;;13.40;12.20;;;23.10;99.30;;;;;;6274128;28;20247;-65
2023/05/21 06:09:52;;;;;;;12.43;11.43;;;23.70;98.00;;;;;;6273769;28;20581;-64
2023/05/21 06:12:56;;;;;;;12.97;11.90;;;24.10;97.40;;;;;;6273719;28;20231;-64
2023/05/21 06:16:00;;;;;;;13.33;12.20;;;24.70;95.70;;;;;;6274387;28;20227;-64
2023/05/21 06:19:03;;;;;;;13.27;12.17;;;25.00;94.90;;;;;;6274342;28;20239;-63
2023/05/21 06:22:07;;;;;;;13.17;11.97;;;25.30;94.10;;;;;;6273961;28;20334;-65
2023/05/21 06:25:10;;;;;;;12.00;10.97;;;25.80;92.90;;;;;;6273334;28;20227;-64
2023/05/21 06:28:13;;;;;;;13.50;12.30;;;26.00;90.50;;;;;;6272796;28;20207;-64
2023/05/21 06:31:21;;;;;;;13.20;12.07;;;26.30;89.10;;;;;;6273043;28;20210;-65
2023/05/21 06:34:24;;;;;;;11.00;10.10;;;27.00;87.90;;;;;;6269909;28;20199;-64
2023/05/21 06:37:27;;;;;;;12.97;11.63;;;27.60;85.80;;;;;;6271226;28;20210;-64
2023/05/21 06:40:30;;;;;;;12.50;11.40;;;27.80;82.10;;;;;;6270647;28;20293;-64
2023/05/21 06:43:34;;;;;;;11.87;10.80;;;27.30;80.40;;;;;;6272087;28;20643;-64
2023/05/21 06:46:39;;;;;;;13.63;12.20;;;26.80;81.60;;;;;;6271658;28;20310;-66
2023/05/21 06:49:42;;;;;;;14.10;12.90;;;26.20;83.20;;;;;;6271605;28;20227;-64
2023/05/21 06:52:46;;;;;;;13.23;12.03;;;25.50;84.10;;;;;;6270467;28;20663;-64
2023/05/21 06:55:52;;;;;;;14.17;12.97;;;25.00;85.80;;;;;;6272225;28;20223;-64
2023/05/21 06:58:55;;;;;;;12.53;11.43;;;24.60;87.70;;;;;;6271820;28;20333;-64
2023/05/21 07:02:00;;;;;;;13.20;11.57;;;24.30;89.70;;;;;;6272208;28;20219;-63
2023/05/21 07:05:06;;;;;;;12.23;11.03;;;24.20;90.10;;;;;;6270974;28;20235;-64
2023/05/21 07:08:10;;;;;;;12.60;11.60;;;24.20;90.30;;;;;;6273620;28;20227;-64
2023/05/21 07:11:14;;;;;;;12.60;11.50;;;24.20;90.30;;;;;;6273656;28;20314;-64
2023/05/21 07:14:17;;;;;;;13.07;11.87;;;24.40;90.40;;;;;;6273866;28;20227;-63
2023/05/21 07:17:22;;;;;;;13.20;12.07;;;24.80;90.00;;;;;;6274001;28;20310;-63
2023/05/21 07:20:25;;;;;;;12.63;11.60;;;25.20;87.90;;;;;;6273526;28;20235;-63
2023/05/21 07:23:28;;;;;;;12.70;11.50;;;25.20;87.10;;;;;;6277829;28;20231;-63
2023/05/21 07:26:31;;;;;;;12.20;11.20;;;25.00;86.40;;;;;;6277912;28;20231;-63
2023/05/21 07:29:34;;;;;;;12.37;11.07;;;25.20;88.00;;;;;;6278619;28;20242;-63
2023/05/21 07:32:39;;;;;;;12.93;11.73;;;26.20;84.90;;;;;;6278028;28;20241;-64
2023/05/21 07:35:42;;;;;;;13.20;12.00;;;26.50;82.60;;;;;;6277985;28;20671;-65
2023/05/21 07:38:45;;;;;;;12.63;11.43;;;27.30;81.70;;;;;;6277538;28;20369;-65
2023/05/21 07:41:49;;;;;;;14.57;11.67;;;28.90;76.30;;;;;;6277718;28;20231;-64
2023/05/21 07:44:52;;;;;;;12.90;11.90;;;30.10;70.80;;;;;;6277306;28;20245;-64
2023/05/21 07:47:56;;;;;;;11.65;10.65;;;31.20;68.20;;;;;;6277629;28;20245;-65
2023/05/21 07:51:00;;;;;;;13.75;12.68;;;31.90;62.90;;;;;;6277316;28;20230;-64
2023/05/21 07:54:04;;;;;;;12.05;11.15;;;32.40;60.00;;;;;;6274354;28;20296;-64
2023/05/21 07:57:07;;;;;;;12.52;11.25;;;33.00;57.30;;;;;;6276389;28;20290;-65
2023/05/21 08:00:13;;;;;;;12.18;11.18;;;32.50;56.70;;;;;;6268945;28;21503;-65
2023/05/21 08:03:18;;;;;;;12.25;11.18;;;32.70;55.80;;;;;;6275154;28;20301;-64
2023/05/21 08:06:23;;;;;;;11.30;10.40;;;32.80;54.60;;;;;;6277037;28;20219;-64
2023/05/21 08:09:26;;;;;;;11.00;10.10;;;32.60;54.90;;;;;;6277316;28;20324;-66
2023/05/21 08:12:29;;;;;;;11.95;10.77;;;32.90;53.40;;;;;;6276656;28;20306;-65
2023/05/21 08:15:32;;;;;;;12.35;11.27;;;33.30;51.50;;;;;;6274015;28;20227;-65
2023/05/21 08:18:37;;;;;;;11.50;10.50;;;33.00;50.60;;;;;;6275141;28;20229;-65
2023/05/21 08:21:40;;;;;;;11.32;10.20;;;32.20;51.00;;;;;;6274566;28;20264;-65
2023/05/21 08:24:43;;;;;;;12.15;11.18;;;31.50;53.00;;;;;;6275223;28;20313;-65
2023/05/21 08:27:46;;;;;;;10.60;9.80;;;31.50;53.40;;;;;;6276363;28;20249;-65
2023/05/21 08:30:51;;;;;;;10.77;9.98;;;31.10;51.20;;;;;;6276136;28;20227;-65
2023/05/21 08:33:56;;;;;;;11.52;10.63;;;31.00;52.40;;;;;;6275894;28;20352;-65
2023/05/21 08:36:59;;;;;;;11.52;10.63;;;30.70;52.20;;;;;;6276121;28;20729;-65
2023/05/21 08:40:04;;;;;;;11.18;10.25;;;30.60;52.90;;;;;;6276483;28;20231;-64
2023/05/21 08:43:12;;;;;;;11.43;10.35;;;30.20;52.30;;;;;;6276427;28;20227;-65
2023/05/21 08:46:18;;;;;;;11.30;10.40;;;29.70;53.20;;;;;;6276063;28;20235;-64
2023/05/21 08:49:26;;;;;;;10.33;9.57;;;29.20;55.00;;;;;;6276308;28;20269;-64
2023/05/21 08:52:31;;;;;;;10.97;10.00;;;29.00;54.50;;;;;;6276308;28;20294;-65
2023/05/21 08:55:34;;;;;;;11.63;10.63;;;28.80;55.00;;;;;;6276058;28;20199;-64
2023/05/21 08:58:41;;;;;;;12.03;10.87;;;28.40;56.00;;;;;;6275104;28;20230;-65
2023/05/21 09:01:45;;;;;;;11.57;10.37;;;28.50;56.10;;;;;;6225134;28;20646;-64
2023/05/21 09:04:56;;;;;;;11.43;10.43;;;28.40;55.70;;;;;;6225113;28;20236;-65
2023/05/21 09:08:05;;;;;;;11.13;10.27;;;28.30;56.70;;;;;;6225450;28;20234;-65
2023/05/21 09:11:08;;;;;;;10.57;9.77;;;28.50;56.70;;;;;;6225111;28;20247;-64
2023/05/21 09:14:12;;;;;;;10.40;9.50;;;28.70;56.00;;;;;;6225682;28;20228;-64
2023/05/21 09:17:16;;;;;;;11.13;10.13;;;28.60;55.80;;;;;;6226246;28;20251;-64
2023/05/21 09:20:25;;;;;;;9.70;9.00;;;28.50;56.90;;;;;;6228547;28;20236;-68
2023/05/21 09:23:28;;;;;;;9.53;8.83;;;28.60;59.30;;;;;;6230215;28;20314;-67
2023/05/21 09:26:32;;;;;;;11.03;10.00;;;28.80;57.00;;;;;;6226710;28;20578;-68
2023/05/21 09:29:36;;;;;;;16.63;8.70;;;28.80;57.40;;;;;;6226236;28;20370;-68
2023/05/21 09:32:40;;;;;;;8.77;8.10;;;28.70;58.50;;;;;;6226652;28;20224;-68
2023/05/21 09:35:47;;;;;;;10.53;9.60;;;28.70;53.80;;;;;;6226034;28;20252;-68
2023/05/21 09:38:51;;;;;;;10.80;9.80;;;28.60;54.80;;;;;;6225234;28;20307;-68
2023/05/21 09:41:56;;;;;;;10.63;9.77;;;28.50;53.40;;;;;;6225451;28;20315;-68
2023/05/21 09:45:00;;;;;;;10.10;9.27;;;28.60;54.90;;;;;;6224842;28;20239;-67
2023/05/21 09:48:04;;;;;;;11.53;10.43;;;28.70;52.50;;;;;;6225818;28;20343;-67
2023/05/21 09:51:13;;;;;;;9.93;9.13;;;28.40;51.00;;;;;;6225619;28;20692;-67
2023/05/21 09:54:16;;;;;;;10.43;9.60;;;28.00;52.80;;;;;;6225394;28;20300;-67
2023/05/21 09:57:24;;;;;;;11.57;10.53;;;27.90;54.00;;;;;;6225791;28;20617;-68
2023/05/21 10:00:28;;;;;;;11.00;10.00;;;28.10;53.70;;;;;;6253582;28;20245;-67
2023/05/21 10:03:33;;;;;;;11.23;9.93;;;28.00;54.30;;;;;;6274633;28;20226;-67
2023/05/21 10:06:42;;;;;;;10.17;9.27;;;27.80;52.80;;;;;;6265122;28;20720;-67
2023/05/21 10:09:47;;;;;;;10.37;9.47;;;27.90;54.50;;;;;;6274312;28;20238;-68
2023/05/21 10:12:55;;;;;;;9.67;8.77;;;28.20;53.80;;;;;;6273908;28;20637;-68
2023/05/21 10:16:02;;;;;;;9.73;8.83;;;28.40;52.00;;;;;;6273781;28;20219;-68
2023/05/21 10:19:09;;;;;;;9.50;8.70;;;28.60;52.30;;;;;;6271715;28;20223;-68
2023/05/21 10:22:15;;;;;;;10.43;9.60;;;28.70;51.60;;;;;;6272270;28;20227;-67
2023/05/21 10:25:20;;;;;;;10.40;9.60;;;28.10;51.90;;;;;;6274297;28;20292;-69
2023/05/21 10:28:24;;;;;;;10.40;9.50;;;28.00;52.50;;;;;;6274267;28;20203;-69
2023/05/21 10:31:27;;;;;;;10.60;9.70;;;28.10;52.30;;;;;;6274825;28;20219;-66
2023/05/21 10:34:32;;;;;;;10.50;9.60;;;28.10;51.80;;;;;;6274737;28;20210;-68
2023/05/21 10:37:37;;;;;;;11.37;10.37;;;28.00;52.40;;;;;;6273994;28;20195;-68
2023/05/21 10:40:40;;;;;;;11.50;10.40;;;28.30;53.00;;;;;;6274333;28;20234;-67
2023/05/21 10:43:57;;;;;;;11.50;10.60;;;28.10;53.30;;;;;;6273767;28;20876;-69
2023/05/21 10:47:27;;;;;;;10.87;9.93;;;27.40;54.10;;;;;;6274142;28;20228;-69
2023/05/21 10:51:09;;;;;;;11.33;10.33;;;27.20;55.20;;;;;;6274114;28;20234;-68
2023/05/21 10:54:36;;;;;;;11.80;10.70;;;27.40;55.20;;;;;;6273752;28;20333;-68
2023/05/21 10:58:10;;;;;;;12.40;11.40;;;27.50;54.70;;;;;;6278590;28;20238;-69
2023/05/21 11:01:15;;;;;;;12.67;11.67;;;27.50;54.80;;;;;;6278640;28;20239;-66
2023/05/21 11:04:22;;;;;;;10.90;9.80;;;27.80;54.40;;;;;;6278358;28;20255;-68
2023/05/21 11:07:56;;;;;;;11.30;10.20;;;27.20;54.00;;;;;;6268791;28;20202;-68
2023/05/21 11:10:59;;;;;;;11.63;10.73;;;27.20;55.30;;;;;;6277906;28;20257;-68
2023/05/21 11:14:27;;;;;;;11.93;10.90;;;27.50;54.60;;;;;;6278303;28;20223;-69
2023/05/21 11:17:40;;;;;;;11.70;10.40;;;27.30;54.10;;;;;;6278307;28;20224;-67
2023/05/21 11:20:50;;;;;;;11.73;10.50;;;27.30;53.80;;;;;;6277629;28;20223;-68
2023/05/21 11:23:56;;;;;;;10.20;9.30;;;27.30;53.60;;;;;;6278210;28;20652;-72
2023/05/21 11:27:07;;;;;;;10.83;9.73;;;27.30;53.10;;;;;;6277952;28;20279;-72
2023/05/21 11:30:15;;;;;;;10.47;9.57;;;27.40;52.80;;;;;;6276669;28;20219;-72
2023/05/21 11:33:19;;;;;;;11.60;10.50;;;27.40;52.30;;;;;;6275923;28;20223;-73
2023/05/21 11:36:22;;;;;;;10.93;10.10;;;27.60;52.10;;;;;;6276147;28;20563;-73
2023/05/21 11:39:27;;;;;;;10.50;9.60;;;27.80;51.90;;;;;;6276247;28;20510;-71
2023/05/21 11:42:32;;;;;;;11.63;10.50;;;27.90;51.80;;;;;;6275968;28;20219;-72
2023/05/21 11:45:36;;;;;;;11.17;10.30;;;28.10;52.70;;;;;;6276008;28;20246;-71
2023/05/21 11:48:40;;;;;;;11.53;10.63;;;28.20;52.50;;;;;;6276920;28;20368;-71
2023/05/21 11:51:44;;;;;;;10.70;9.73;;;28.20;51.50;;;;;;6274412;28;20237;-71
2023/05/21 11:54:52;;;;;;;11.10;10.10;;;28.40;51.80;;;;;;6281947;28;20678;-71
2023/05/21 11:57:56;;;;;;;10.70;9.80;;;28.60;51.10;;;;;;6281844;28;20219;-71
2023/05/21 12:00:59;;;;;;;11.30;10.23;;;28.90;50.70;;;;;;6276934;28;20234;-68
2023/05/21 12:04:04;;;;;;;10.93;9.80;;;29.20;50.40;;;;;;6274129;28;20227;-72
2023/05/21 12:07:08;;;;;;;11.80;10.67;;;29.30;49.90;;;;;;6275699;28;20638;-72
2023/05/21 12:10:13;;;;;;;11.17;10.20;;;29.00;49.20;;;;;;6276443;28;20226;-71
2023/05/21 12:13:16;;;;;;;10.60;9.53;;;29.00;49.30;;;;;;6277089;28;20219;-71
2023/05/21 12:16:21;;;;;;;10.93;10.00;;;28.90;49.20;;;;;;6276030;28;20215;-72
2023/05/21 12:19:25;;;;;;;10.10;9.30;;;28.50;49.00;;;;;;6276297;28;20242;-71
2023/05/21 12:22:28;;;;;;;11.43;10.43;;;28.30;49.80;;;;;;6276431;28;20199;-70
2023/05/21 12:25:33;;;;;;;10.57;9.77;;;28.10;50.50;;;;;;6276136;28;20223;-73
2023/05/21 12:28:37;;;;;;;11.03;10.00;;;27.80;50.60;;;;;;6276270;28;21764;-71
2023/05/21 12:31:48;;;;;;;10.77;9.97;;;27.60;50.80;;;;;;6275882;28;20306;-71
2023/05/21 12:34:53;;;;;;;11.63;10.53;;;27.60;51.50;;;;;;6276106;28;20223;-72
2023/05/21 12:37:56;;;;;;;11.10;9.97;;;27.70;51.30;;;;;;6273765;28;20284;-73
2023/05/21 12:41:05;;;;;;;10.57;9.57;;;27.80;50.50;;;;;;6275915;28;20679;-72
2023/05/21 12:44:08;;;;;;;10.57;9.63;;;27.80;50.80;;;;;;6275438;28;20545;-73
2023/05/21 12:47:12;;;;;;;11.30;10.30;;;27.90;49.90;;;;;;6276156;28;20231;-70
2023/05/21 12:50:20;;;;;;;10.63;9.63;;;27.80;49.70;;;;;;6276438;28;20691;-72
2023/05/21 12:53:23;;;;;;;11.40;10.53;;;27.70;49.20;;;;;;6274633;28;20701;-73
2023/05/21 12:56:27;;;;;;;10.27;9.37;;;27.50;49.40;;;;;;6275415;28;20234;-73
2023/05/21 12:59:44;;;;;;;10.77;9.70;;;27.50;49.30;;;;;;6275496;28;20623;-72
2023/05/21 13:02:47;;;;;;;11.47;10.53;;;27.50;48.90;;;;;;6275132;28;20239;-71
2023/05/21 13:05:58;;;;;;;11.73;10.53;;;27.50;48.80;;;;;;6275390;28;20227;-72
2023/05/21 13:09:01;;;;;;;10.60;9.43;;;27.30;49.60;;;;;;6275138;28;20739;-72
2023/05/21 13:12:06;;;;;;;10.97;10.07;;;27.30;49.60;;;;;;6275416;28;20246;-73
2023/05/21 13:15:11;;;;;;;10.37;9.47;;;27.20;49.70;;;;;;6270773;28;20317;-72
2023/05/21 13:18:14;;;;;;;11.50;10.50;;;27.10;49.40;;;;;;6275108;28;20254;-70
2023/05/21 13:21:18;;;;;;;9.63;8.83;;;27.10;49.20;;;;;;6274843;28;20246;-72
2023/05/21 13:24:21;;;;;;;11.00;9.90;;;27.20;48.10;;;;;;6275320;28;20231;-70
2023/05/21 13:27:26;;;;;;;10.47;9.43;;;27.20;48.40;;;;;;6274972;28;20219;-71
2023/05/21 13:30:29;;;;;;;9.73;8.93;;;27.40;48.00;;;;;;6274145;28;20230;-71
2023/05/21 13:33:32;;;;;;;12.43;11.13;;;27.50;48.20;;;;;;6274732;28;20724;-72
2023/05/21 13:36:36;;;;;;;10.93;10.13;;;27.50;47.60;;;;;;6274833;28;20286;-71
2023/05/21 13:39:39;;;;;;;11.40;10.20;;;27.30;47.50;;;;;;6274576;28;20307;-70
2023/05/21 13:42:44;;;;;;;10.77;9.73;;;27.30;47.90;;;;;;6274600;28;20233;-69
2023/05/21 13:45:48;;;;;;;12.57;9.33;;;27.40;47.90;;;;;;6274723;28;20234;-71
2023/05/21 13:48:51;;;;;;;10.97;9.90;;;27.10;47.50;;;;;;6274716;28;20639;-70
2023/05/21 13:51:56;;;;;;;10.43;9.53;;;26.80;47.80;;;;;;6274466;28;20685;-71
2023/05/21 13:55:01;;;;;;;10.77;9.97;;;26.90;47.60;;;;;;6260497;28;20219;-71
2023/05/21 13:58:06;;;;;;;10.90;9.77;;;26.70;48.10;;;;;;6273563;28;20239;-72
2023/05/21 14:01:09;;;;;;;11.00;10.10;;;26.40;48.40;;;;;;6273484;28;20247;-70
2023/05/21 14:04:12;;;;;;;10.77;9.90;;;26.60;48.50;;;;;;6275778;28;20231;-70
2023/05/21 14:07:16;;;;;;;10.27;9.37;;;26.70;48.90;;;;;;6274481;28;20264;-70
2023/05/21 14:10:19;;;;;;;10.90;9.97;;;26.90;48.70;;;;;;6274233;28;20244;-70
2023/05/21 14:13:24;;;;;;;10.40;9.50;;;27.20;48.40;;;;;;6274876;28;20268;-70
2023/05/21 14:16:27;;;;;;;10.37;9.50;;;27.50;48.10;;;;;;6269624;28;20495;-71
2023/05/21 14:19:30;;;;;;;10.93;10.03;;;27.60;47.90;;;;;;6273587;28;20218;-71
2023/05/21 14:22:33;;;;;;;11.17;10.27;;;27.40;48.70;;;;;;6274381;28;20199;-71
2023/05/21 14:25:37;;;;;;;11.47;10.27;;;27.40;48.40;;;;;;6273748;28;20211;-71
2023/05/21 14:28:42;;;;;;;10.50;9.70;;;27.40;48.40;;;;;;6273514;28;20235;-69
2023/05/21 14:31:46;;;;;;;10.93;10.03;;;27.50;49.10;;;;;;6278163;28;20245;-71
2023/05/21 14:34:49;;;;;;;10.60;9.80;;;27.50;49.40;;;;;;6278860;28;20598;-71
2023/05/21 14:37:53;;;;;;;10.43;9.43;;;27.40;48.80;;;;;;6279274;28;20226;-71
2023/05/21 14:40:56;;;;;;;10.30;9.40;;;27.30;47.70;;;;;;6279193;28;20745;-71
2023/05/21 14:44:00;;;;;;;9.53;8.73;;;27.10;48.30;;;;;;6278985;28;20233;-70
2023/05/21 14:47:04;;;;;;;11.10;9.93;;;27.20;49.30;;;;;;6278418;28;20709;-70
2023/05/21 14:50:08;;;;;;;11.00;10.00;;;27.40;50.40;;;;;;6276870;28;20380;-71
2023/05/21 14:53:12;;;;;;;10.13;9.20;;;27.40;48.30;;;;;;6278508;28;20234;-71
2023/05/21 14:56:15;;;;;;;10.97;10.03;;;27.40;46.00;;;;;;6280939;28;20241;-71
2023/05/21 14:59:19;;;;;;;13.33;9.90;;;27.40;45.20;;;;;;6278316;28;20400;-71
2023/05/21 15:02:23;;;;;;;10.07;9.17;;;27.50;45.40;;;;;;6278088;28;20567;-71
2023/05/21 15:05:28;;;;;;;10.23;9.43;;;27.40;44.60;;;;;;6278826;28;20284;-71
2023/05/21 15:08:31;;;;;;;10.33;9.40;;;27.20;45.60;;;;;;6278503;28;20321;-70
2023/05/21 15:11:34;;;;;;;10.17;9.27;;;27.10;46.50;;;;;;6278487;28;20328;-72
2023/05/21 15:14:39;;;;;;;11.20;10.10;;;27.30;47.20;;;;;;6278037;28;20247;-70
2023/05/21 15:17:43;;;;;;;11.47;10.33;;;27.30;46.80;;;;;;6278565;28;20229;-71
2023/05/21 15:20:46;;;;;;;10.37;9.43;;;27.10;47.50;;;;;;6277601;28;20659;-70
2023/05/21 15:23:50;;;;;;;10.60;9.80;;;27.10;46.80;;;;;;6278385;28;20237;-70
2023/05/21 15:26:53;;;;;;;9.60;8.80;;;27.20;46.50;;;;;;6277453;28;20643;-70
2023/05/21 15:29:58;;;;;;;9.60;8.80;;;27.20;47.10;;;;;;6278361;28;20234;-70
2023/05/21 15:33:01;;;;;;;11.17;10.17;;;27.30;45.60;;;;;;6277899;28;20233;-70
2023/05/21 15:36:04;;;;;;;10.50;9.37;;;27.20;46.50;;;;;;6277877;28;20317;-70
2023/05/21 15:39:08;;;;;;;10.80;9.90;;;27.20;46.70;;;;;;6277726;28;20235;-70
2023/05/21 15:42:11;;;;;;;11.50;10.70;;;27.00;47.50;;;;;;6276033;28;20231;-70